Time;durP1;ratioP1;P1;durP2;ratioP2;P2;SDS_P1;SDS_P2;PMS_P1;PMS_P2;Temp;Humidity;BMP_temperature;BMP_pressure;BME280_temperature;BME280_humidity;BME280_pressure;Samples;Min_cycle;Max_cycle;Signal;HPM_P1;HPM_P2
2024/04/24 00:01:08;;;;;;;2.10;0.50;;;6.60;1.00;;;;;;5530004;26;20453;-72
2024/04/24 00:03:38;;;;;;;1.23;0.50;;;6.50;1.00;;;;;;5529479;26;20693;-72
2024/04/24 00:06:08;;;;;;;0.70;0.40;;;6.20;1.00;;;;;;5530578;26;20749;-72
2024/04/24 00:08:37;;;;;;;0.60;0.40;;;5.90;1.00;;;;;;5530247;26;20460;-72
2024/04/24 00:11:06;;;;;;;2.33;0.50;;;5.50;1.00;;;;;;5529623;26;20523;-72
2024/04/24 00:13:35;;;;;;;0.67;0.40;;;5.40;30.00;;;;;;5530139;26;20495;-73
2024/04/24 00:16:05;;;;;;;0.60;0.40;;;5.10;99.90;;;;;;5529599;26;20460;-71
2024/04/24 00:18:38;;;;;;;1.53;0.30;;;5.00;99.90;;;;;;5530105;26;20456;-71
2024/04/24 00:21:10;;;;;;;0.70;0.53;;;4.80;99.90;;;;;;5528085;26;20606;-71
2024/04/24 00:23:39;;;;;;;1.17;0.40;;;4.70;99.90;;;;;;5528139;26;20532;-71
2024/04/24 00:26:08;;;;;;;0.70;0.40;;;4.60;99.90;;;;;;5529028;26;20441;-71
2024/04/24 00:28:36;;;;;;;0.40;0.30;;;4.70;1.00;;;;;;5528594;26;20583;-71
2024/04/24 00:31:06;;;;;;;2.50;0.40;;;4.80;1.00;;;;;;5529995;26;20633;-72
2024/04/24 00:33:39;;;;;;;0.70;0.40;;;4.70;99.90;;;;;;5530124;26;20539;-74
2024/04/24 00:36:08;;;;;;;0.80;0.40;;;4.70;99.90;;;;;;5529777;26;20468;-72
2024/04/24 00:38:37;;;;;;;0.70;0.40;;;4.70;1.00;;;;;;5529099;26;20520;-72
2024/04/24 00:41:06;;;;;;;1.17;0.40;;;4.60;99.90;;;;;;5529243;26;20509;-72
2024/04/24 00:43:35;;;;;;;0.53;0.37;;;4.60;1.00;;;;;;5528004;26;20488;-72
2024/04/24 00:46:05;;;;;;;1.20;0.60;;;4.70;1.00;;;;;;5528901;26;20552;-71
2024/04/24 00:48:34;;;;;;;0.93;0.43;;;4.70;99.90;;;;;;5527631;26;20453;-73
2024/04/24 00:51:06;;;;;;;0.63;0.40;;;4.70;99.90;;;;;;5528711;26;20897;-71
2024/04/24 00:53:35;;;;;;;1.43;0.30;;;4.70;99.90;;;;;;5529085;26;20574;-71
2024/04/24 00:56:06;;;;;;;0.50;0.30;;;4.70;99.90;;;;;;5528376;26;20452;-72
2024/04/24 00:58:38;;;;;;;2.53;0.57;;;4.80;1.00;;;;;;5534948;25;20447;-72
2024/04/24 01:01:07;;;;;;;0.97;0.50;;;4.80;99.90;;;;;;5555731;25;20597;-73
2024/04/24 01:03:38;;;;;;;0.90;0.47;;;4.70;99.90;;;;;;5494823;26;20450;-73
2024/04/24 01:06:10;;;;;;;1.10;0.60;;;4.70;1.00;;;;;;5549498;25;20715;-73
2024/04/24 01:08:39;;;;;;;1.10;0.53;;;4.80;1.00;;;;;;5528397;25;20515;-73
2024/04/24 01:11:09;;;;;;;1.17;0.50;;;4.60;1.00;;;;;;5492142;26;20450;-74
2024/04/24 01:13:38;;;;;;;0.80;0.40;;;4.60;1.00;;;;;;5509875;26;20750;-70
2024/04/24 01:16:11;;;;;;;0.80;0.40;;;4.50;1.00;;;;;;5528684;26;20469;-72
2024/04/24 01:18:47;;;;;;;0.80;0.40;;;4.50;1.00;;;;;;5553753;25;20760;-72
2024/04/24 01:21:18;;;;;;;0.70;0.40;;;4.50;1.00;;;;;;5564900;25;20938;-72
2024/04/24 01:23:53;;;;;;;0.80;0.50;;;4.50;1.00;;;;;;5528124;25;20464;-72
2024/04/24 01:26:24;;;;;;;0.90;0.50;;;4.50;1.00;;;;;;5527938;26;20440;-72
2024/04/24 01:28:56;;;;;;;0.80;0.60;;;4.10;1.00;;;;;;5529804;26;20541;-72
2024/04/24 01:31:25;;;;;;;0.57;0.30;;;4.00;64.10;;;;;;5531871;26;20456;-71
2024/04/24 01:33:54;;;;;;;1.07;0.40;;;4.00;99.90;;;;;;5532989;26;20587;-72
2024/04/24 01:36:23;;;;;;;2.53;0.53;;;4.20;99.90;;;;;;5531236;26;20452;-72
2024/04/24 01:38:51;;;;;;;3.53;0.40;;;4.30;99.90;;;;;;5531560;25;21012;-72
2024/04/24 01:41:20;;;;;;;1.80;0.50;;;4.40;1.00;;;;;;5541704;26;20512;-72
2024/04/24 01:43:49;;;;;;;0.70;0.50;;;4.60;1.00;;;;;;5539783;26;20440;-72
2024/04/24 01:46:20;;;;;;;0.43;0.40;;;4.60;1.00;;;;;;5539492;26;20497;-71
2024/04/24 01:48:49;;;;;;;1.20;0.37;;;4.80;1.00;;;;;;5541412;26;20508;-72
2024/04/24 01:51:18;;;;;;;0.73;0.40;;;4.90;1.00;;;;;;5540258;26;20456;-72
2024/04/24 01:53:47;;;;;;;1.50;0.47;;;5.00;1.00;;;;;;5534771;26;20448;-72
2024/04/24 01:56:15;;;;;;;1.23;0.50;;;5.00;1.00;;;;;;5533135;26;20491;-72
2024/04/24 01:58:44;;;;;;;0.80;0.50;;;5.00;1.00;;;;;;5532963;26;20515;-72
2024/04/24 02:01:13;;;;;;;1.20;0.50;;;5.10;1.00;;;;;;5494923;26;21119;-72
2024/04/24 02:03:44;;;;;;;0.97;0.50;;;5.00;1.00;;;;;;5495009;26;20465;-72
2024/04/24 02:06:14;;;;;;;0.57;0.30;;;4.90;1.00;;;;;;5495416;26;20617;-71
2024/04/24 02:08:42;;;;;;;0.77;0.43;;;4.90;1.00;;;;;;5495431;26;20517;-72
2024/04/24 02:11:11;;;;;;;1.63;0.30;;;4.90;1.00;;;;;;5510527;26;20456;-72
2024/04/24 02:13:40;;;;;;;1.20;0.50;;;4.90;1.00;;;;;;5532082;26;20444;-72
2024/04/24 02:16:08;;;;;;;0.60;0.30;;;5.10;1.00;;;;;;5531672;26;20509;-73
2024/04/24 02:18:37;;;;;;;0.80;0.50;;;5.10;1.00;;;;;;5531403;26;21019;-72
2024/04/24 02:21:11;;;;;;;1.23;0.50;;;5.20;99.90;;;;;;5531071;26;20513;-73
2024/04/24 02:23:39;;;;;;;1.13;0.43;;;5.20;99.90;;;;;;5531252;26;20702;-73
2024/04/24 02:26:06;;;;;;;1.23;0.50;;;5.20;99.90;;;;;;5531902;26;20441;-72
2024/04/24 02:28:35;;;;;;;0.90;0.50;;;5.30;99.90;;;;;;5532201;26;20444;-73
2024/04/24 02:31:03;;;;;;;0.73;0.43;;;5.30;99.90;;;;;;5531232;26;20901;-75
2024/04/24 02:33:32;;;;;;;0.60;0.40;;;5.40;99.90;;;;;;5531577;26;20510;-72
2024/04/24 02:36:01;;;;;;;0.90;0.50;;;5.50;99.90;;;;;;5531901;26;20456;-73
2024/04/24 02:38:32;;;;;;;1.10;0.50;;;5.50;99.90;;;;;;5531241;25;20456;-72
2024/04/24 02:41:01;;;;;;;1.13;0.50;;;5.50;99.90;;;;;;5531262;26;20441;-73
2024/04/24 02:43:29;;;;;;;1.00;0.50;;;5.50;99.90;;;;;;5530624;26;20457;-72
2024/04/24 02:45:58;;;;;;;2.60;0.50;;;5.50;99.90;;;;;;5530827;26;20460;-73
2024/04/24 02:48:25;;;;;;;1.33;0.40;;;5.50;99.90;;;;;;5530853;26;20870;-72
2024/04/24 02:50:53;;;;;;;0.80;0.40;;;5.40;99.90;;;;;;5529833;26;20889;-72
2024/04/24 02:53:22;;;;;;;0.67;0.50;;;5.40;99.90;;;;;;5531101;26;20572;-72
2024/04/24 02:55:53;;;;;;;1.20;0.60;;;5.40;99.90;;;;;;5530935;25;20440;-71
2024/04/24 02:58:22;;;;;;;1.20;0.53;;;5.40;99.90;;;;;;5522017;26;20946;-72
2024/04/24 03:00:50;;;;;;;0.90;0.40;;;5.30;99.90;;;;;;5513151;25;20520;-72
2024/04/24 03:03:19;;;;;;;1.23;0.60;;;5.30;99.90;;;;;;5508852;26;20526;-72
2024/04/24 03:05:48;;;;;;;1.27;0.77;;;5.40;99.90;;;;;;5529696;26;20730;-70
2024/04/24 03:08:17;;;;;;;1.10;0.60;;;5.40;99.90;;;;;;5531001;26;20748;-70
2024/04/24 03:10:46;;;;;;;1.03;0.70;;;5.30;99.90;;;;;;5531080;26;20724;-71
2024/04/24 03:13:17;;;;;;;0.67;0.43;;;5.30;1.00;;;;;;5529931;26;20514;-70
2024/04/24 03:15:46;;;;;;;0.93;0.50;;;5.30;1.00;;;;;;5525922;26;20464;-70
2024/04/24 03:18:14;;;;;;;0.50;0.30;;;5.20;1.00;;;;;;5515077;26;20897;-72
2024/04/24 03:20:43;;;;;;;2.83;0.50;;;5.00;1.00;;;;;;5529931;26;20460;-70
2024/04/24 03:23:11;;;;;;;1.27;0.60;;;5.00;1.00;;;;;;5499963;26;20457;-71
2024/04/24 03:25:40;;;;;;;1.90;0.50;;;4.90;1.00;;;;;;5529519;26;20491;-71
2024/04/24 03:28:09;;;;;;;1.53;0.60;;;4.90;1.00;;;;;;5529213;26;20448;-71
2024/04/24 03:30:40;;;;;;;0.93;0.50;;;4.70;1.00;;;;;;5529010;26;20941;-72
2024/04/24 03:33:09;;;;;;;1.33;0.50;;;4.70;99.90;;;;;;5520937;26;20607;-72
2024/04/24 03:35:38;;;;;;;1.10;0.60;;;4.70;99.90;;;;;;5498002;26;20903;-71
2024/04/24 03:38:06;;;;;;;0.93;0.50;;;4.50;99.90;;;;;;5493416;26;20446;-72
2024/04/24 03:40:35;;;;;;;2.17;0.70;;;4.50;99.90;;;;;;5514037;26;20448;-71
2024/04/24 03:43:04;;;;;;;0.80;0.50;;;4.40;1.00;;;;;;5538700;25;20460;-72
2024/04/24 03:45:33;;;;;;;0.90;0.57;;;4.20;1.00;;;;;;5527497;26;20505;-71
2024/04/24 03:48:05;;;;;;;1.67;0.50;;;4.50;1.00;;;;;;5527021;26;20483;-71
2024/04/24 03:50:33;;;;;;;1.47;0.37;;;4.50;1.00;;;;;;5525368;26;20465;-71
2024/04/24 03:53:02;;;;;;;0.63;0.50;;;4.60;1.00;;;;;;5525980;26;20457;-72
2024/04/24 03:55:31;;;;;;;1.00;0.40;;;4.70;99.90;;;;;;5526975;25;20502;-72
2024/04/24 03:57:59;;;;;;;0.90;0.60;;;4.50;99.90;;;;;;5527575;26;20514;-72
2024/04/24 04:00:28;;;;;;;1.10;0.50;;;4.30;99.90;;;;;;5529111;26;20925;-71
2024/04/24 04:02:57;;;;;;;1.70;0.50;;;4.30;99.90;;;;;;5529198;26;20436;-72
2024/04/24 04:05:28;;;;;;;1.73;0.60;;;4.30;99.90;;;;;;5529475;26;20501;-72
2024/04/24 04:08:00;;;;;;;1.03;0.60;;;4.30;74.00;;;;;;5523812;26;20496;-71
2024/04/24 04:10:30;;;;;;;0.87;0.47;;;4.40;99.90;;;;;;5529337;25;20500;-71
2024/04/24 04:12:56;;;;;;;1.37;0.60;;;4.50;1.00;;;;;;5528432;26;20551;-71
2024/04/24 04:15:24;;;;;;;1.70;0.67;;;4.60;1.00;;;;;;5528875;25;20508;-71
2024/04/24 04:17:53;;;;;;;1.00;0.50;;;4.80;1.00;;;;;;5527335;25;20520;-72
2024/04/24 04:20:22;;;;;;;1.77;0.70;;;4.90;1.00;;;;;;5525270;26;20469;-71
2024/04/24 04:23:00;;;;;;;1.33;0.70;;;4.90;1.00;;;;;;5525317;26;20947;-71
2024/04/24 04:25:29;;;;;;;1.63;0.70;;;4.90;1.00;;;;;;5525730;26;20440;-70
2024/04/24 04:28:00;;;;;;;2.17;0.77;;;4.80;1.00;;;;;;5525755;26;20507;-71
2024/04/24 04:30:29;;;;;;;2.67;0.60;;;4.80;1.00;;;;;;5527396;26;20572;-71
2024/04/24 04:32:58;;;;;;;1.00;0.63;;;4.70;1.00;;;;;;5527503;26;20476;-71
2024/04/24 04:35:26;;;;;;;1.37;0.50;;;4.70;1.00;;;;;;5528322;26;20904;-70
2024/04/24 04:37:58;;;;;;;1.00;0.50;;;4.80;1.00;;;;;;5527834;25;20509;-72
2024/04/24 04:40:26;;;;;;;2.13;0.70;;;5.10;1.00;;;;;;5524488;26;20449;-71
2024/04/24 04:42:55;;;;;;;0.87;0.50;;;5.20;1.00;;;;;;5528386;26;20569;-71
2024/04/24 04:45:24;;;;;;;1.10;0.70;;;5.40;1.00;;;;;;5526988;26;20461;-71
2024/04/24 04:47:52;;;;;;;0.73;0.53;;;5.40;1.00;;;;;;5508843;26;20928;-71
2024/04/24 04:50:21;;;;;;;1.80;0.67;;;5.40;1.00;;;;;;5502369;26;20520;-71
2024/04/24 04:52:50;;;;;;;1.73;0.60;;;5.30;99.90;;;;;;5525135;26;20509;-71
2024/04/24 04:55:21;;;;;;;3.17;0.87;;;5.30;99.90;;;;;;5521555;26;20460;-70
2024/04/24 04:57:50;;;;;;;2.60;0.70;;;5.20;99.90;;;;;;5521762;26;20460;-71
2024/04/24 05:00:19;;;;;;;1.10;0.60;;;5.00;99.90;;;;;;5505766;26;20457;-71
2024/04/24 05:02:48;;;;;;;3.23;0.67;;;5.00;1.00;;;;;;5488134;26;20518;-72
2024/04/24 05:05:17;;;;;;;1.00;0.70;;;5.10;1.00;;;;;;5499690;26;20516;-71
2024/04/24 05:07:46;;;;;;;1.30;0.70;;;5.20;1.00;;;;;;5520477;26;20456;-71
2024/04/24 05:10:14;;;;;;;1.77;0.70;;;5.20;99.90;;;;;;5527126;26;20504;-71
2024/04/24 05:12:48;;;;;;;2.87;0.60;;;5.20;99.90;;;;;;5525957;26;20468;-71
2024/04/24 05:15:17;;;;;;;1.00;0.67;;;5.20;1.00;;;;;;5526909;26;20456;-71
2024/04/24 05:17:45;;;;;;;1.10;0.70;;;5.30;1.00;;;;;;5527771;26;20578;-72
2024/04/24 05:20:14;;;;;;;1.77;0.70;;;5.50;1.00;;;;;;5528945;25;20508;-72
2024/04/24 05:22:50;;;;;;;1.03;0.50;;;5.70;1.00;;;;;;5528802;26;20432;-71
2024/04/24 05:25:21;;;;;;;1.37;0.47;;;5.80;99.90;;;;;;5521961;26;20712;-73
2024/04/24 05:30:39;;;;;;;1.00;0.53;;;5.20;99.90;;;;;;5445447;26;20461;-73
2024/04/24 05:33:08;;;;;;;1.33;0.57;;;4.90;99.90;;;;;;5526617;26;20856;-72
2024/04/24 05:35:34;;;;;;;0.80;0.40;;;4.70;1.00;;;;;;5528359;26;20536;-73
2024/04/24 05:38:03;;;;;;;1.47;0.50;;;4.60;1.00;;;;;;5528706;25;20517;-73
2024/04/24 05:40:31;;;;;;;1.63;0.67;;;4.50;1.00;;;;;;5529696;25;20440;-74
2024/04/24 05:43:03;;;;;;;1.10;0.40;;;4.50;1.00;;;;;;5524374;26;20501;-73
2024/04/24 05:45:32;;;;;;;1.73;0.60;;;4.50;1.00;;;;;;5524416;26;20458;-73
2024/04/24 05:48:01;;;;;;;1.07;0.63;;;4.60;1.00;;;;;;5526311;25;20489;-73
2024/04/24 05:50:30;;;;;;;2.00;0.70;;;4.70;1.00;;;;;;5529983;26;20421;-73
2024/04/24 05:52:59;;;;;;;1.33;0.60;;;4.80;1.00;;;;;;5530202;26;20562;-73
2024/04/24 05:55:28;;;;;;;0.97;0.60;;;4.80;1.00;;;;;;5528768;26;20496;-73
2024/04/24 05:57:57;;;;;;;16.97;0.60;;;4.80;1.00;;;;;;5529227;26;20469;-73
2024/04/24 06:00:28;;;;;;;1.03;0.40;;;4.80;1.00;;;;;;5528481;26;20700;-73
2024/04/24 06:02:58;;;;;;;0.80;0.47;;;4.90;1.00;;;;;;5500255;26;21058;-73
2024/04/24 06:05:27;;;;;;;0.80;0.37;;;4.90;1.00;;;;;;5524418;26;21073;-73
2024/04/24 06:07:57;;;;;;;1.00;0.43;;;5.00;1.00;;;;;;5529608;25;20476;-74
2024/04/24 06:10:25;;;;;;;2.23;0.70;;;5.10;1.00;;;;;;5544140;25;20522;-73
2024/04/24 06:12:55;;;;;;;0.67;0.37;;;5.20;1.00;;;;;;5524989;25;21150;-73
2024/04/24 06:15:24;;;;;;;1.30;0.70;;;5.30;1.00;;;;;;5523834;26;20906;-73
2024/04/24 06:17:55;;;;;;;2.83;0.60;;;5.50;1.00;;;;;;5522246;25;21036;-73
2024/04/24 06:20:24;;;;;;;1.00;0.60;;;5.80;1.00;;;;;;5502061;25;20469;-73
2024/04/24 06:22:53;;;;;;;1.13;0.40;;;6.00;99.90;;;;;;5512265;25;21172;-72
2024/04/24 06:25:23;;;;;;;1.50;0.60;;;6.20;99.90;;;;;;5509077;26;20525;-72
2024/04/24 06:27:52;;;;;;;1.20;0.57;;;6.30;99.90;;;;;;5524911;26;20472;-72
2024/04/24 06:30:21;;;;;;;1.23;0.57;;;6.90;99.90;;;;;;5515418;26;20521;-73
2024/04/24 06:32:50;;;;;;;1.13;0.63;;;7.10;99.90;;;;;;5523539;26;20472;-72
2024/04/24 06:35:21;;;;;;;1.40;0.70;;;7.40;99.90;;;;;;5527039;26;20453;-73
2024/04/24 06:37:48;;;;;;;1.87;0.77;;;7.40;99.90;;;;;;5528229;26;20465;-72
2024/04/24 06:40:17;;;;;;;1.23;0.80;;;7.30;99.90;;;;;;5524351;26;20768;-71
2024/04/24 06:42:45;;;;;;;1.20;0.73;;;7.20;99.90;;;;;;5520343;25;21147;-71
2024/04/24 06:45:14;;;;;;;0.70;0.50;;;7.10;99.90;;;;;;5530183;25;20518;-71
2024/04/24 06:47:43;;;;;;;1.03;0.63;;;7.20;99.90;;;;;;5531543;25;20473;-71
2024/04/24 06:50:11;;;;;;;1.57;0.90;;;7.50;99.90;;;;;;5520925;25;21062;-72
2024/04/24 06:52:43;;;;;;;1.63;0.90;;;7.50;1.00;;;;;;5499383;26;20448;-73
2024/04/24 06:55:12;;;;;;;1.10;0.77;;;7.30;1.00;;;;;;5555343;25;20959;-73
2024/04/24 06:57:41;;;;;;;1.03;0.73;;;7.20;1.00;;;;;;5526463;25;20530;-72
2024/04/24 07:00:12;;;;;;;2.30;0.90;;;7.20;1.00;;;;;;5519913;26;20465;-72
2024/04/24 07:02:41;;;;;;;2.03;0.83;;;7.10;1.00;;;;;;5500124;26;20474;-73
2024/04/24 07:05:10;;;;;;;1.67;1.00;;;7.20;1.00;;;;;;5500677;26;20476;-74
2024/04/24 07:07:38;;;;;;;2.27;0.90;;;7.10;1.00;;;;;;5538797;25;20460;-74
2024/04/24 07:10:10;;;;;;;2.80;1.07;;;7.20;1.00;;;;;;5505988;26;20516;-74
2024/04/24 07:12:39;;;;;;;2.23;0.70;;;7.10;1.00;;;;;;5501131;26;20638;-74
2024/04/24 07:15:09;;;;;;;1.67;0.83;;;7.10;1.00;;;;;;5496688;25;20522;-74
2024/04/24 07:17:39;;;;;;;3.00;1.30;;;7.20;1.00;;;;;;5501692;26;20512;-73
2024/04/24 07:20:09;;;;;;;2.50;0.80;;;7.10;1.00;;;;;;5502673;25;20905;-74
2024/04/24 07:22:37;;;;;;;2.60;1.00;;;7.00;1.00;;;;;;5498439;26;20469;-74
2024/04/24 07:25:09;;;;;;;1.60;1.00;;;6.90;1.00;;;;;;5503598;26;20569;-74
2024/04/24 07:27:38;;;;;;;1.77;0.70;;;7.20;55.40;;;;;;5503073;25;20490;-74
2024/04/24 07:30:08;;;;;;;1.47;0.90;;;7.60;45.40;;;;;;5504600;26;20820;-74
2024/04/24 07:32:37;;;;;;;3.23;1.30;;;7.80;23.30;;;;;;5502916;26;20464;-74
2024/04/24 07:35:07;;;;;;;1.90;0.93;;;7.70;66.30;;;;;;5509760;26;20783;-74
2024/04/24 07:37:37;;;;;;;2.13;1.30;;;7.60;99.90;;;;;;5500279;25;20532;-74
2024/04/24 07:40:06;;;;;;;1.83;0.80;;;7.20;99.90;;;;;;5501210;26;20528;-73
2024/04/24 07:42:39;;;;;;;2.00;0.90;;;7.20;1.00;;;;;;5509148;26;20547;-75
2024/04/24 07:45:12;;;;;;;1.70;1.10;;;7.30;1.00;;;;;;5500033;26;20609;-74
2024/04/24 07:47:41;;;;;;;1.57;0.80;;;7.40;1.00;;;;;;5473532;26;20465;-75
2024/04/24 07:50:10;;;;;;;1.47;0.90;;;7.60;1.00;;;;;;5483400;25;20535;-75
2024/04/24 07:52:40;;;;;;;1.47;0.80;;;7.70;1.00;;;;;;5510736;25;21155;-75
2024/04/24 07:55:09;;;;;;;2.80;1.00;;;8.10;1.00;;;;;;5479541;26;20473;-74
2024/04/24 07:57:40;;;;;;;2.33;1.00;;;8.10;99.90;;;;;;5508246;26;20476;-74
2024/04/24 08:00:10;;;;;;;1.50;1.10;;;8.00;99.90;;;;;;5506682;26;20715;-74
2024/04/24 08:02:39;;;;;;;1.23;0.80;;;7.90;99.90;;;;;;5507579;25;20468;-74
2024/04/24 08:05:08;;;;;;;2.23;0.90;;;7.70;99.90;;;;;;5501729;26;20510;-75
2024/04/24 08:07:39;;;;;;;2.60;1.13;;;7.40;1.00;;;;;;5501237;26;20492;-74
2024/04/24 08:10:09;;;;;;;2.17;1.17;;;7.20;99.90;;;;;;5463225;26;20486;-74
2024/04/24 08:12:41;;;;;;;4.00;1.03;;;7.20;99.90;;;;;;5506174;26;20926;-74
2024/04/24 08:15:11;;;;;;;1.97;1.10;;;7.20;99.90;;;;;;5517622;26;20473;-74
2024/04/24 08:17:42;;;;;;;2.50;1.00;;;7.30;1.00;;;;;;5513438;26;20480;-74
2024/04/24 08:20:11;;;;;;;1.67;0.77;;;7.40;1.00;;;;;;5511220;26;20534;-73
2024/04/24 08:22:42;;;;;;;1.53;0.87;;;7.60;1.00;;;;;;5521488;26;21224;-73
2024/04/24 08:25:10;;;;;;;1.80;0.87;;;7.60;99.90;;;;;;5494584;25;20445;-74
2024/04/24 08:27:42;;;;;;;1.80;0.90;;;8.00;99.90;;;;;;5504976;25;20962;-72
2024/04/24 08:30:11;;;;;;;3.63;1.10;;;8.00;99.90;;;;;;5520999;26;20467;-73
2024/04/24 08:32:41;;;;;;;1.10;0.80;;;8.00;99.90;;;;;;5528002;26;20499;-73
2024/04/24 08:35:10;;;;;;;1.37;0.90;;;7.90;99.90;;;;;;5515964;25;20452;-75
2024/04/24 08:37:39;;;;;;;2.70;1.30;;;7.90;99.90;;;;;;5520308;26;20520;-73
2024/04/24 08:40:12;;;;;;;2.20;1.00;;;8.00;99.90;;;;;;5521139;25;20512;-73
2024/04/24 08:42:44;;;;;;;1.77;1.00;;;8.00;26.10;;;;;;5486758;26;20468;-72
2024/04/24 08:45:19;;;;;;;1.37;0.77;;;7.90;95.80;;;;;;5515460;26;21245;-73
2024/04/24 08:47:50;;;;;;;2.27;1.00;;;8.10;99.90;;;;;;5521356;26;20975;-74
2024/04/24 08:50:21;;;;;;;1.80;1.00;;;8.30;45.30;;;;;;5519282;26;20476;-74
2024/04/24 08:52:55;;;;;;;2.80;1.10;;;8.60;52.30;;;;;;5528523;26;20460;-73
2024/04/24 08:55:25;;;;;;;1.83;1.07;;;8.80;1.00;;;;;;5524736;26;20569;-74
2024/04/24 08:58:02;;;;;;;4.10;0.90;;;8.80;1.00;;;;;;5526404;26;20480;-74
2024/04/24 09:00:32;;;;;;;1.70;1.00;;;8.90;1.00;;;;;;5506717;26;20471;-75
2024/04/24 09:03:05;;;;;;;1.57;0.90;;;8.90;1.00;;;;;;5527611;26;20475;-75
2024/04/24 09:05:42;;;;;;;1.80;0.93;;;8.80;1.00;;;;;;5522154;26;20472;-74
2024/04/24 09:08:12;;;;;;;1.17;0.80;;;8.80;1.00;;;;;;5527300;26;20516;-73
2024/04/24 09:10:42;;;;;;;1.80;0.70;;;8.60;42.60;;;;;;5523537;26;20713;-74
2024/04/24 09:13:15;;;;;;;1.33;0.70;;;8.60;99.90;;;;;;5519467;26;20484;-75
2024/04/24 09:15:45;;;;;;;2.67;0.77;;;8.60;1.00;;;;;;5519937;25;20476;-74
2024/04/24 09:18:14;;;;;;;1.10;0.80;;;8.60;46.20;;;;;;5524838;26;20520;-74
2024/04/24 09:20:55;;;;;;;1.50;0.70;;;8.60;1.00;;;;;;5519268;26;20562;-74
2024/04/24 09:23:28;;;;;;;1.60;0.80;;;8.50;1.00;;;;;;5522044;26;20950;-73
2024/04/24 09:26:01;;;;;;;3.10;0.80;;;8.50;1.00;;;;;;5509130;26;20481;-75
2024/04/24 09:28:35;;;;;;;2.43;1.20;;;8.50;1.00;;;;;;5523262;26;20472;-75
2024/04/24 09:31:06;;;;;;;1.57;1.00;;;8.30;1.00;;;;;;5524389;26;20464;-75
2024/04/24 09:33:35;;;;;;;1.67;0.97;;;8.20;14.90;;;;;;5489150;26;20588;-79
2024/04/24 09:36:04;;;;;;;1.73;0.90;;;7.70;99.90;;;;;;5486934;26;20466;-73
2024/04/24 09:38:33;;;;;;;2.43;1.67;;;7.70;1.00;;;;;;5514423;26;20954;-73
2024/04/24 09:41:01;;;;;;;1.80;0.90;;;7.90;1.00;;;;;;5517932;26;20476;-73
2024/04/24 09:43:34;;;;;;;3.13;1.03;;;8.00;1.00;;;;;;5513879;26;20534;-73
2024/04/24 09:46:03;;;;;;;2.73;0.93;;;8.10;1.00;;;;;;5511950;26;20599;-72
2024/04/24 09:48:32;;;;;;;1.60;0.90;;;8.10;1.00;;;;;;5511958;26;20502;-72
2024/04/24 09:51:01;;;;;;;2.73;0.80;;;7.90;99.90;;;;;;5519996;26;20472;-72
2024/04/24 09:53:30;;;;;;;2.00;0.90;;;7.60;1.00;;;;;;5519076;26;20520;-72
2024/04/24 09:56:05;;;;;;;2.50;0.93;;;7.30;99.90;;;;;;5515553;26;20827;-72
2024/04/24 09:58:37;;;;;;;1.80;1.10;;;7.40;63.70;;;;;;5520551;26;20471;-72
2024/04/24 10:01:09;;;;;;;2.83;1.00;;;7.60;1.00;;;;;;5527221;26;20456;-73
2024/04/24 10:03:42;;;;;;;2.33;1.20;;;7.80;1.00;;;;;;5519976;26;20509;-74
2024/04/24 10:06:13;;;;;;;1.90;1.10;;;8.20;99.90;;;;;;5536013;25;20472;-72
2024/04/24 10:08:45;;;;;;;2.33;0.90;;;8.30;1.00;;;;;;5532010;25;20575;-73
2024/04/24 10:11:21;;;;;;;1.57;1.13;;;8.40;1.00;;;;;;5526615;25;20555;-73
2024/04/24 10:13:54;;;;;;;2.23;1.07;;;8.10;99.90;;;;;;5525694;26;20467;-74
2024/04/24 10:16:24;;;;;;;2.23;0.90;;;8.00;1.00;;;;;;5522130;26;20471;-73
2024/04/24 10:18:54;;;;;;;3.23;1.10;;;8.20;99.90;;;;;;5534640;25;20457;-72
2024/04/24 10:21:25;;;;;;;1.60;0.90;;;8.50;1.00;;;;;;5519570;26;20528;-72
2024/04/24 10:23:55;;;;;;;2.40;1.17;;;8.50;1.00;;;;;;5522984;26;20464;-73
2024/04/24 10:26:27;;;;;;;2.10;0.90;;;8.70;1.00;;;;;;5524789;26;20513;-73
2024/04/24 10:29:00;;;;;;;2.00;1.10;;;8.90;1.00;;;;;;5523434;26;20468;-73
2024/04/24 10:31:30;;;;;;;2.93;0.90;;;8.80;99.90;;;;;;5524538;26;20522;-73
2024/04/24 10:34:00;;;;;;;2.07;1.40;;;8.70;99.90;;;;;;5517465;26;20452;-74
2024/04/24 10:36:29;;;;;;;1.60;0.80;;;8.70;99.90;;;;;;5525013;26;20456;-73
2024/04/24 10:38:57;;;;;;;1.70;0.90;;;8.40;99.90;;;;;;5515052;26;20528;-74
2024/04/24 10:41:28;;;;;;;1.30;0.73;;;8.40;99.90;;;;;;5524171;26;20947;-73
2024/04/24 10:43:59;;;;;;;2.13;1.10;;;8.50;99.90;;;;;;5523413;26;20360;-73
2024/04/24 10:46:31;;;;;;;1.73;0.87;;;8.40;99.90;;;;;;5527073;26;21391;-73
2024/04/24 10:49:00;;;;;;;0.93;0.60;;;8.30;99.90;;;;;;5522550;26;20957;-73
2024/04/24 10:51:34;;;;;;;1.10;0.70;;;8.20;99.90;;;;;;5515761;26;20457;-72
2024/04/24 10:54:14;;;;;;;1.07;0.60;;;8.20;99.90;;;;;;5524510;26;20528;-72
2024/04/24 10:56:43;;;;;;;1.50;0.60;;;8.20;99.90;;;;;;5521638;25;20472;-73
2024/04/24 10:59:14;;;;;;;2.27;0.60;;;8.20;99.90;;;;;;5523540;26;20957;-73
2024/04/24 11:01:45;;;;;;;1.00;0.50;;;8.20;99.90;;;;;;5527148;26;20468;-73
2024/04/24 11:04:15;;;;;;;0.97;0.50;;;8.30;99.90;;;;;;5527884;26;20516;-73
2024/04/24 11:06:44;;;;;;;0.73;0.50;;;8.40;99.90;;;;;;5520352;26;20512;-73
2024/04/24 11:09:13;;;;;;;1.07;0.60;;;8.20;99.90;;;;;;5527023;26;20464;-73
2024/04/24 11:11:43;;;;;;;1.00;0.60;;;8.10;99.90;;;;;;5480738;26;20788;-73
2024/04/24 11:14:14;;;;;;;1.30;0.60;;;7.80;99.90;;;;;;5527092;26;20495;-73
2024/04/24 11:16:55;;;;;;;0.70;0.40;;;7.90;1.00;;;;;;5526476;26;20464;-73
2024/04/24 11:19:25;;;;;;;1.40;0.57;;;7.90;1.00;;;;;;5517492;26;20473;-74
2024/04/24 11:21:54;;;;;;;0.80;0.50;;;8.10;99.90;;;;;;5526287;26;20596;-73
2024/04/24 11:24:30;;;;;;;1.07;0.50;;;8.20;99.90;;;;;;5522330;26;20845;-73
2024/04/24 11:27:00;;;;;;;1.00;0.50;;;8.20;99.90;;;;;;5517238;26;20475;-73
2024/04/24 11:29:38;;;;;;;0.70;0.40;;;8.30;99.90;;;;;;5512913;26;20485;-72
2024/04/24 11:32:08;;;;;;;1.30;0.50;;;8.40;99.90;;;;;;5518728;26;20617;-72
2024/04/24 11:34:40;;;;;;;0.90;0.50;;;8.50;99.90;;;;;;5504689;26;20921;-72
2024/04/24 11:37:09;;;;;;;0.70;0.40;;;8.70;99.90;;;;;;5514987;26;21083;-73
2024/04/24 11:39:38;;;;;;;0.90;0.50;;;8.90;99.90;;;;;;5516239;26;20472;-72
2024/04/24 11:42:08;;;;;;;1.43;0.50;;;8.90;99.90;;;;;;5521455;25;20521;-74
2024/04/24 11:44:40;;;;;;;1.20;0.50;;;9.00;99.90;;;;;;5520235;26;20547;-72
2024/04/24 11:47:10;;;;;;;0.50;0.40;;;8.90;99.90;;;;;;5516375;26;20518;-72
2024/04/24 11:49:39;;;;;;;1.33;0.40;;;9.10;99.90;;;;;;5518201;25;20997;-73
2024/04/24 11:52:11;;;;;;;0.50;0.40;;;9.30;99.90;;;;;;5520254;26;20579;-72
2024/04/24 11:54:40;;;;;;;0.60;0.40;;;9.50;99.90;;;;;;5519565;26;20521;-74
2024/04/24 11:57:09;;;;;;;0.73;0.47;;;9.30;39.90;;;;;;5520603;26;20576;-74
2024/04/24 11:59:48;;;;;;;0.60;0.40;;;9.50;75.00;;;;;;5516529;26;20603;-73
2024/04/24 12:02:18;;;;;;;1.07;0.50;;;9.50;32.80;;;;;;5516160;26;21089;-73
2024/04/24 12:04:47;;;;;;;1.17;0.50;;;9.40;15.50;;;;;;5508901;26;20516;-73
2024/04/24 12:07:16;;;;;;;0.77;0.57;;;9.30;45.50;;;;;;5523844;26;20882;-72
2024/04/24 12:09:46;;;;;;;3.13;0.50;;;9.40;87.50;;;;;;5522761;26;20927;-72
2024/04/24 12:12:15;;;;;;;0.87;0.50;;;9.50;17.10;;;;;;5524275;26;20484;-73
2024/04/24 12:14:51;;;;;;;0.80;0.53;;;9.40;1.00;;;;;;5524991;25;20537;-72
2024/04/24 12:17:21;;;;;;;0.90;0.40;;;9.10;1.00;;;;;;5523108;26;20452;-73
2024/04/24 12:19:49;;;;;;;1.27;0.50;;;9.30;1.00;;;;;;5525326;26;20524;-73
2024/04/24 12:22:18;;;;;;;0.80;0.50;;;9.20;1.00;;;;;;5516931;26;20909;-73
2024/04/24 12:24:47;;;;;;;1.00;0.60;;;9.50;1.00;;;;;;5510627;26;20470;-73
2024/04/24 12:27:18;;;;;;;0.93;0.40;;;9.60;1.00;;;;;;5520212;26;20911;-72
2024/04/24 12:29:50;;;;;;;0.80;0.50;;;9.60;1.00;;;;;;5524609;26;20893;-73
2024/04/24 12:32:19;;;;;;;0.70;0.40;;;10.00;1.00;;;;;;5508104;26;20454;-72
2024/04/24 12:34:45;;;;;;;0.93;0.53;;;9.80;1.00;;;;;;5518491;26;20965;-72
2024/04/24 12:37:13;;;;;;;1.00;0.57;;;9.70;1.00;;;;;;5525011;26;21114;-72
2024/04/24 12:39:42;;;;;;;0.60;0.40;;;10.00;1.00;;;;;;5515468;25;20515;-72
2024/04/24 12:42:11;;;;;;;5.23;0.50;;;10.50;1.00;;;;;;5525132;26;20449;-73
2024/04/24 12:44:40;;;;;;;1.50;0.47;;;11.00;1.00;;;;;;5517844;26;20496;-73
2024/04/24 12:47:12;;;;;;;1.40;0.50;;;11.20;1.00;;;;;;5524947;25;20460;-72
2024/04/24 12:49:41;;;;;;;1.00;0.50;;;11.10;99.90;;;;;;5519016;26;20540;-73
2024/04/24 12:52:10;;;;;;;0.73;0.30;;;10.40;99.90;;;;;;5523200;26;20568;-73
2024/04/24 12:54:38;;;;;;;1.00;0.40;;;10.10;99.90;;;;;;5519560;26;20472;-72
2024/04/24 12:57:10;;;;;;;1.10;0.40;;;9.90;99.90;;;;;;5521979;26;20721;-72
2024/04/24 12:59:39;;;;;;;1.00;0.50;;;9.70;99.90;;;;;;5518497;26;20457;-72
2024/04/24 13:02:12;;;;;;;0.70;0.40;;;10.00;99.90;;;;;;5522037;26;20472;-73
2024/04/24 13:04:41;;;;;;;1.20;0.40;;;10.00;99.90;;;;;;5521679;26;20511;-73
2024/04/24 13:07:13;;;;;;;0.80;0.50;;;9.80;99.90;;;;;;5520714;26;20788;-73
2024/04/24 13:09:43;;;;;;;0.60;0.40;;;9.40;99.90;;;;;;5517981;26;20469;-73
2024/04/24 13:12:14;;;;;;;1.33;0.50;;;9.40;99.90;;;;;;5500890;26;20473;-73
2024/04/24 13:14:44;;;;;;;0.50;0.30;;;9.70;99.90;;;;;;5512187;26;20471;-73
2024/04/24 13:17:19;;;;;;;2.00;0.60;;;9.60;99.90;;;;;;5524140;26;20460;-73
2024/04/24 13:19:50;;;;;;;0.90;0.60;;;9.30;35.30;;;;;;5498765;26;20540;-73